sensor_id;sensor_type;location;lat;lon;timestamp;P1;durP1;ratioP1;P2;durP2;ratioP2
23596;SDS011;40226;50.874;4.394;2023-07-29T00:00:56;3.53;;;1.98;;
23596;SDS011;40226;50.874;4.394;2023-07-29T00:03:21;2.50;;;1.80;;
23596;SDS011;40226;50.874;4.394;2023-07-29T00:05:47;2.60;;;1.85;;
23596;SDS011;40226;50.874;4.394;2023-07-29T00:08:13;2.72;;;2.13;;
23596;SDS011;40226;50.874;4.394;2023-07-29T00:10:38;3.13;;;2.05;;
23596;SDS011;40226;50.874;4.394;2023-07-29T00:13:04;4.35;;;2.22;;
23596;SDS011;40226;50.874;4.394;2023-07-29T00:15:30;3.30;;;2.20;;
23596;SDS011;40226;50.874;4.394;2023-07-29T00:17:56;3.88;;;2.20;;
23596;SDS011;40226;50.874;4.394;2023-07-29T00:20:22;3.75;;;1.98;;
23596;SDS011;40226;50.874;4.394;2023-07-29T00:22:47;2.60;;;1.90;;
23596;SDS011;40226;50.874;4.394;2023-07-29T00:25:18;3.10;;;1.90;;
23596;SDS011;40226;50.874;4.394;2023-07-29T00:27:44;3.00;;;1.70;;
23596;SDS011;40226;50.874;4.394;2023-07-29T00:30:10;4.45;;;2.10;;
23596;SDS011;40226;50.874;4.394;2023-07-29T00:32:36;3.28;;;1.98;;
23596;SDS011;40226;50.874;4.394;2023-07-29T00:35:02;3.70;;;2.00;;
23596;SDS011;40226;50.874;4.394;2023-07-29T00:37:28;3.13;;;2.08;;
23596;SDS011;40226;50.874;4.394;2023-07-29T00:39:55;2.95;;;1.92;;
23596;SDS011;40226;50.874;4.394;2023-07-29T00:42:20;3.65;;;2.05;;
23596;SDS011;40226;50.874;4.394;2023-07-29T00:44:46;3.58;;;2.28;;
23596;SDS011;40226;50.874;4.394;2023-07-29T00:47:12;3.80;;;1.98;;
23596;SDS011;40226;50.874;4.394;2023-07-29T00:49:39;4.65;;;2.45;;
23596;SDS011;40226;50.874;4.394;2023-07-29T00:52:05;3.38;;;2.05;;
23596;SDS011;40226;50.874;4.394;2023-07-29T00:54:31;5.30;;;2.25;;
23596;SDS011;40226;50.874;4.394;2023-07-29T00:56:57;3.50;;;2.13;;
23596;SDS011;40226;50.874;4.394;2023-07-29T00:59:22;3.15;;;2.13;;
23596;SDS011;40226;50.874;4.394;2023-07-29T01:01:48;3.38;;;2.40;;
23596;SDS011;40226;50.874;4.394;2023-07-29T01:04:14;4.22;;;2.17;;
23596;SDS011;40226;50.874;4.394;2023-07-29T01:06:48;4.70;;;1.92;;
23596;SDS011;40226;50.874;4.394;2023-07-29T01:09:23;6.88;;;2.47;;
23596;SDS011;40226;50.874;4.394;2023-07-29T01:14:59;6.13;;;2.50;;
23596;SDS011;40226;50.874;4.394;2023-07-29T01:17:36;3.25;;;2.15;;
23596;SDS011;40226;50.874;4.394;2023-07-29T01:20:07;5.20;;;2.65;;
23596;SDS011;40226;50.874;4.394;2023-07-29T01:22:35;4.88;;;2.80;;
23596;SDS011;40226;50.874;4.394;2023-07-29T01:25:01;6.97;;;2.80;;
23596;SDS011;40226;50.874;4.394;2023-07-29T01:27:27;4.60;;;3.05;;
23596;SDS011;40226;50.874;4.394;2023-07-29T01:29:53;4.82;;;2.80;;
23596;SDS011;40226;50.874;4.394;2023-07-29T01:35:03;4.80;;;2.60;;
23596;SDS011;40226;50.874;4.394;2023-07-29T01:37:34;8.83;;;2.90;;
23596;SDS011;40226;50.874;4.394;2023-07-29T01:40:01;5.72;;;2.78;;
23596;SDS011;40226;50.874;4.394;2023-07-29T01:42:29;6.03;;;3.15;;
23596;SDS011;40226;50.874;4.394;2023-07-29T01:44:56;4.32;;;2.58;;
23596;SDS011;40226;50.874;4.394;2023-07-29T01:47:22;6.28;;;3.10;;
23596;SDS011;40226;50.874;4.394;2023-07-29T01:49:47;5.70;;;3.30;;
23596;SDS011;40226;50.874;4.394;2023-07-29T01:52:13;4.15;;;2.80;;
23596;SDS011;40226;50.874;4.394;2023-07-29T01:54:38;5.25;;;2.90;;
23596;SDS011;40226;50.874;4.394;2023-07-29T01:57:04;6.03;;;2.90;;
23596;SDS011;40226;50.874;4.394;2023-07-29T01:59:30;4.18;;;2.90;;
23596;SDS011;40226;50.874;4.394;2023-07-29T02:01:55;7.03;;;2.80;;
23596;SDS011;40226;50.874;4.394;2023-07-29T02:04:21;4.72;;;2.58;;
23596;SDS011;40226;50.874;4.394;2023-07-29T02:06:47;6.50;;;3.05;;
23596;SDS011;40226;50.874;4.394;2023-07-29T02:09:12;4.47;;;2.92;;
23596;SDS011;40226;50.874;4.394;2023-07-29T02:11:38;5.85;;;3.13;;
23596;SDS011;40226;50.874;4.394;2023-07-29T02:14:03;5.65;;;3.20;;
23596;SDS011;40226;50.874;4.394;2023-07-29T02:16:29;5.43;;;3.00;;
23596;SDS011;40226;50.874;4.394;2023-07-29T02:18:54;5.45;;;2.90;;
23596;SDS011;40226;50.874;4.394;2023-07-29T02:21:20;6.90;;;2.85;;
23596;SDS011;40226;50.874;4.394;2023-07-29T02:23:45;7.57;;;3.45;;
23596;SDS011;40226;50.874;4.394;2023-07-29T02:26:11;5.47;;;2.80;;
23596;SDS011;40226;50.874;4.394;2023-07-29T02:28:36;6.68;;;3.13;;
23596;SDS011;40226;50.874;4.394;2023-07-29T02:31:09;5.60;;;2.92;;
23596;SDS011;40226;50.874;4.394;2023-07-29T02:33:35;5.93;;;2.78;;
23596;SDS011;40226;50.874;4.394;2023-07-29T02:36:01;6.15;;;3.20;;
23596;SDS011;40226;50.874;4.394;2023-07-29T02:38:26;6.18;;;2.90;;
23596;SDS011;40226;50.874;4.394;2023-07-29T02:40:52;5.32;;;2.65;;
23596;SDS011;40226;50.874;4.394;2023-07-29T02:43:18;4.05;;;2.85;;
23596;SDS011;40226;50.874;4.394;2023-07-29T02:45:43;4.68;;;2.70;;
23596;SDS011;40226;50.874;4.394;2023-07-29T02:48:09;4.00;;;2.70;;
23596;SDS011;40226;50.874;4.394;2023-07-29T02:50:34;4.05;;;2.50;;
23596;SDS011;40226;50.874;4.394;2023-07-29T02:53:00;10.82;;;2.88;;
23596;SDS011;40226;50.874;4.394;2023-07-29T02:55:26;5.05;;;2.67;;
23596;SDS011;40226;50.874;4.394;2023-07-29T02:57:52;4.85;;;2.75;;
23596;SDS011;40226;50.874;4.394;2023-07-29T03:00:18;4.07;;;2.75;;
23596;SDS011;40226;50.874;4.394;2023-07-29T03:02:43;5.45;;;2.50;;
23596;SDS011;40226;50.874;4.394;2023-07-29T03:05:09;7.15;;;2.70;;
23596;SDS011;40226;50.874;4.394;2023-07-29T03:07:34;6.22;;;2.90;;
23596;SDS011;40226;50.874;4.394;2023-07-29T03:10:00;4.72;;;2.97;;
23596;SDS011;40226;50.874;4.394;2023-07-29T03:12:25;4.85;;;2.67;;
23596;SDS011;40226;50.874;4.394;2023-07-29T03:14:51;4.10;;;2.63;;
23596;SDS011;40226;50.874;4.394;2023-07-29T03:17:17;6.20;;;2.72;;
23596;SDS011;40226;50.874;4.394;2023-07-29T03:19:42;4.13;;;2.67;;
23596;SDS011;40226;50.874;4.394;2023-07-29T03:22:08;5.70;;;2.83;;
23596;SDS011;40226;50.874;4.394;2023-07-29T03:24:34;5.22;;;2.95;;
23596;SDS011;40226;50.874;4.394;2023-07-29T03:26:59;4.93;;;2.92;;
23596;SDS011;40226;50.874;4.394;2023-07-29T03:29:25;6.53;;;3.30;;
23596;SDS011;40226;50.874;4.394;2023-07-29T03:31:51;6.43;;;2.78;;
23596;SDS011;40226;50.874;4.394;2023-07-29T03:34:17;4.97;;;2.90;;
23596;SDS011;40226;50.874;4.394;2023-07-29T03:36:42;4.10;;;3.00;;
23596;SDS011;40226;50.874;4.394;2023-07-29T03:39:08;5.45;;;2.72;;
23596;SDS011;40226;50.874;4.394;2023-07-29T03:41:33;5.60;;;3.10;;
23596;SDS011;40226;50.874;4.394;2023-07-29T03:43:59;4.85;;;3.20;;
23596;SDS011;40226;50.874;4.394;2023-07-29T03:46:25;4.72;;;3.10;;
23596;SDS011;40226;50.874;4.394;2023-07-29T03:48:50;6.90;;;3.10;;
23596;SDS011;40226;50.874;4.394;2023-07-29T03:51:16;5.68;;;2.90;;
23596;SDS011;40226;50.874;4.394;2023-07-29T03:53:41;6.80;;;3.20;;
23596;SDS011;40226;50.874;4.394;2023-07-29T03:56:07;5.18;;;3.20;;
23596;SDS011;40226;50.874;4.394;2023-07-29T03:58:33;6.65;;;3.50;;
23596;SDS011;40226;50.874;4.394;2023-07-29T04:00:58;6.10;;;3.20;;
23596;SDS011;40226;50.874;4.394;2023-07-29T04:03:24;4.47;;;3.10;;
23596;SDS011;40226;50.874;4.394;2023-07-29T04:05:50;5.88;;;3.17;;
23596;SDS011;40226;50.874;4.394;2023-07-29T04:08:16;4.30;;;3.10;;
23596;SDS011;40226;50.874;4.394;2023-07-29T04:10:41;6.15;;;3.60;;
23596;SDS011;40226;50.874;4.394;2023-07-29T04:13:07;4.75;;;2.97;;
23596;SDS011;40226;50.874;4.394;2023-07-29T04:15:32;6.72;;;2.95;;
23596;SDS011;40226;50.874;4.394;2023-07-29T04:17:58;5.35;;;3.03;;
23596;SDS011;40226;50.874;4.394;2023-07-29T04:20:24;7.00;;;3.20;;
23596;SDS011;40226;50.874;4.394;2023-07-29T04:22:49;3.60;;;2.72;;
23596;SDS011;40226;50.874;4.394;2023-07-29T04:25:15;7.93;;;3.30;;
23596;SDS011;40226;50.874;4.394;2023-07-29T04:27:40;5.30;;;2.70;;
23596;SDS011;40226;50.874;4.394;2023-07-29T04:30:06;6.72;;;3.03;;
23596;SDS011;40226;50.874;4.394;2023-07-29T04:32:32;5.70;;;2.75;;
23596;SDS011;40226;50.874;4.394;2023-07-29T04:34:58;4.50;;;3.00;;
23596;SDS011;40226;50.874;4.394;2023-07-29T04:37:23;3.35;;;2.50;;
23596;SDS011;40226;50.874;4.394;2023-07-29T04:39:49;4.15;;;2.60;;
23596;SDS011;40226;50.874;4.394;2023-07-29T04:42:14;5.45;;;3.10;;
23596;SDS011;40226;50.874;4.394;2023-07-29T04:44:40;6.03;;;3.10;;
23596;SDS011;40226;50.874;4.394;2023-07-29T04:47:07;6.03;;;3.03;;
23596;SDS011;40226;50.874;4.394;2023-07-29T04:49:32;4.85;;;3.03;;
23596;SDS011;40226;50.874;4.394;2023-07-29T04:51:58;4.80;;;3.00;;
23596;SDS011;40226;50.874;4.394;2023-07-29T04:54:25;4.97;;;2.50;;
23596;SDS011;40226;50.874;4.394;2023-07-29T04:56:51;5.65;;;3.00;;
23596;SDS011;40226;50.874;4.394;2023-07-29T04:59:17;8.18;;;2.90;;
23596;SDS011;40226;50.874;4.394;2023-07-29T05:01:42;5.22;;;2.60;;
23596;SDS011;40226;50.874;4.394;2023-07-29T05:04:08;5.50;;;2.97;;
23596;SDS011;40226;50.874;4.394;2023-07-29T05:06:34;4.95;;;2.90;;
23596;SDS011;40226;50.874;4.394;2023-07-29T05:09:00;5.60;;;3.00;;
23596;SDS011;40226;50.874;4.394;2023-07-29T05:11:38;5.43;;;2.70;;
23596;SDS011;40226;50.874;4.394;2023-07-29T05:14:03;4.40;;;2.70;;
23596;SDS011;40226;50.874;4.394;2023-07-29T05:16:31;5.53;;;2.70;;
23596;SDS011;40226;50.874;4.394;2023-07-29T05:18:56;8.32;;;2.90;;
23596;SDS011;40226;50.874;4.394;2023-07-29T05:21:22;4.63;;;2.30;;
23596;SDS011;40226;50.874;4.394;2023-07-29T05:23:47;5.00;;;2.50;;
23596;SDS011;40226;50.874;4.394;2023-07-29T05:26:13;6.72;;;2.35;;
23596;SDS011;40226;50.874;4.394;2023-07-29T05:28:39;4.82;;;2.33;;
23596;SDS011;40226;50.874;4.394;2023-07-29T05:31:04;5.45;;;2.60;;
23596;SDS011;40226;50.874;4.394;2023-07-29T05:33:30;4.32;;;2.20;;
23596;SDS011;40226;50.874;4.394;2023-07-29T05:35:55;4.05;;;2.35;;
23596;SDS011;40226;50.874;4.394;2023-07-29T05:38:21;7.25;;;2.80;;
23596;SDS011;40226;50.874;4.394;2023-07-29T05:40:47;4.15;;;2.40;;
23596;SDS011;40226;50.874;4.394;2023-07-29T05:43:13;3.92;;;2.17;;
23596;SDS011;40226;50.874;4.394;2023-07-29T05:45:39;4.60;;;2.28;;
23596;SDS011;40226;50.874;4.394;2023-07-29T05:48:05;4.38;;;2.30;;
23596;SDS011;40226;50.874;4.394;2023-07-29T05:50:30;3.55;;;2.20;;
23596;SDS011;40226;50.874;4.394;2023-07-29T05:52:56;4.03;;;2.65;;
23596;SDS011;40226;50.874;4.394;2023-07-29T05:55:22;6.38;;;2.40;;
23596;SDS011;40226;50.874;4.394;2023-07-29T05:57:47;3.45;;;2.40;;
23596;SDS011;40226;50.874;4.394;2023-07-29T06:00:13;4.22;;;2.40;;
23596;SDS011;40226;50.874;4.394;2023-07-29T06:02:39;2.60;;;2.00;;
23596;SDS011;40226;50.874;4.394;2023-07-29T06:05:06;3.55;;;2.20;;
23596;SDS011;40226;50.874;4.394;2023-07-29T06:07:32;3.42;;;2.20;;
23596;SDS011;40226;50.874;4.394;2023-07-29T06:09:58;5.22;;;2.50;;
23596;SDS011;40226;50.874;4.394;2023-07-29T06:12:25;3.35;;;2.13;;
23596;SDS011;40226;50.874;4.394;2023-07-29T06:14:51;4.25;;;2.80;;
23596;SDS011;40226;50.874;4.394;2023-07-29T06:17:17;3.78;;;2.80;;
23596;SDS011;40226;50.874;4.394;2023-07-29T06:19:42;5.97;;;2.17;;
23596;SDS011;40226;50.874;4.394;2023-07-29T06:22:09;5.10;;;2.10;;
23596;SDS011;40226;50.874;4.394;2023-07-29T06:24:34;4.38;;;2.08;;
23596;SDS011;40226;50.874;4.394;2023-07-29T06:27:00;3.78;;;2.00;;
23596;SDS011;40226;50.874;4.394;2023-07-29T06:29:25;4.40;;;1.98;;
23596;SDS011;40226;50.874;4.394;2023-07-29T06:31:51;3.58;;;1.92;;
23596;SDS011;40226;50.874;4.394;2023-07-29T06:34:17;4.75;;;2.20;;
23596;SDS011;40226;50.874;4.394;2023-07-29T06:36:43;7.78;;;1.85;;
23596;SDS011;40226;50.874;4.394;2023-07-29T06:39:09;2.28;;;1.90;;
23596;SDS011;40226;50.874;4.394;2023-07-29T06:41:34;3.63;;;1.83;;
23596;SDS011;40226;50.874;4.394;2023-07-29T06:44:00;3.28;;;1.83;;
23596;SDS011;40226;50.874;4.394;2023-07-29T06:46:26;2.75;;;1.88;;
23596;SDS011;40226;50.874;4.394;2023-07-29T06:48:51;3.33;;;1.88;;
23596;SDS011;40226;50.874;4.394;2023-07-29T06:51:17;3.50;;;1.80;;
23596;SDS011;40226;50.874;4.394;2023-07-29T06:53:42;3.40;;;1.80;;
23596;SDS011;40226;50.874;4.394;2023-07-29T06:56:08;4.45;;;2.00;;
23596;SDS011;40226;50.874;4.394;2023-07-29T06:58:34;2.38;;;1.83;;
23596;SDS011;40226;50.874;4.394;2023-07-29T07:00:59;3.40;;;1.63;;
23596;SDS011;40226;50.874;4.394;2023-07-29T07:03:25;2.15;;;1.60;;
23596;SDS011;40226;50.874;4.394;2023-07-29T07:05:51;3.78;;;1.92;;
23596;SDS011;40226;50.874;4.394;2023-07-29T07:08:16;3.63;;;1.80;;
23596;SDS011;40226;50.874;4.394;2023-07-29T07:10:42;4.57;;;1.73;;
23596;SDS011;40226;50.874;4.394;2023-07-29T07:13:07;3.90;;;1.67;;
23596;SDS011;40226;50.874;4.394;2023-07-29T07:15:33;4.22;;;1.60;;
23596;SDS011;40226;50.874;4.394;2023-07-29T07:17:58;3.88;;;2.00;;
23596;SDS011;40226;50.874;4.394;2023-07-29T07:20:24;4.00;;;1.92;;
23596;SDS011;40226;50.874;4.394;2023-07-29T07:22:49;2.65;;;1.80;;
23596;SDS011;40226;50.874;4.394;2023-07-29T07:25:15;4.88;;;2.10;;
23596;SDS011;40226;50.874;4.394;2023-07-29T07:27:41;4.68;;;1.92;;
23596;SDS011;40226;50.874;4.394;2023-07-29T07:30:06;3.45;;;1.67;;
23596;SDS011;40226;50.874;4.394;2023-07-29T07:32:32;5.72;;;2.33;;
23596;SDS011;40226;50.874;4.394;2023-07-29T07:34:58;5.43;;;2.15;;
23596;SDS011;40226;50.874;4.394;2023-07-29T07:37:23;5.20;;;2.13;;
23596;SDS011;40226;50.874;4.394;2023-07-29T07:39:49;3.17;;;1.88;;
23596;SDS011;40226;50.874;4.394;2023-07-29T07:42:15;2.80;;;1.52;;
23596;SDS011;40226;50.874;4.394;2023-07-29T07:44:40;3.08;;;1.85;;
23596;SDS011;40226;50.874;4.394;2023-07-29T07:47:06;3.65;;;1.95;;
23596;SDS011;40226;50.874;4.394;2023-07-29T07:49:31;3.60;;;1.85;;
23596;SDS011;40226;50.874;4.394;2023-07-29T07:51:57;2.70;;;1.73;;
23596;SDS011;40226;50.874;4.394;2023-07-29T07:54:22;3.97;;;1.90;;
23596;SDS011;40226;50.874;4.394;2023-07-29T07:56:48;2.67;;;1.98;;
23596;SDS011;40226;50.874;4.394;2023-07-29T07:59:14;4.13;;;2.08;;
23596;SDS011;40226;50.874;4.394;2023-07-29T08:01:39;6.35;;;1.95;;
23596;SDS011;40226;50.874;4.394;2023-07-29T08:04:05;3.20;;;2.05;;
23596;SDS011;40226;50.874;4.394;2023-07-29T08:06:31;3.15;;;1.85;;
23596;SDS011;40226;50.874;4.394;2023-07-29T08:08:57;6.35;;;2.13;;
23596;SDS011;40226;50.874;4.394;2023-07-29T08:11:23;3.97;;;1.80;;
23596;SDS011;40226;50.874;4.394;2023-07-29T08:13:49;2.10;;;1.70;;
23596;SDS011;40226;50.874;4.394;2023-07-29T08:16:14;3.63;;;1.85;;
23596;SDS011;40226;50.874;4.394;2023-07-29T08:18:40;3.10;;;1.70;;
23596;SDS011;40226;50.874;4.394;2023-07-29T08:21:06;6.25;;;1.88;;
23596;SDS011;40226;50.874;4.394;2023-07-29T08:23:35;3.83;;;1.98;;
23596;SDS011;40226;50.874;4.394;2023-07-29T08:26:01;2.92;;;1.88;;
23596;SDS011;40226;50.874;4.394;2023-07-29T08:28:33;3.92;;;1.80;;
23596;SDS011;40226;50.874;4.394;2023-07-29T08:33:30;3.08;;;1.60;;
23596;SDS011;40226;50.874;4.394;2023-07-29T08:35:57;2.78;;;1.90;;
23596;SDS011;40226;50.874;4.394;2023-07-29T08:38:24;4.43;;;1.83;;
23596;SDS011;40226;50.874;4.394;2023-07-29T08:40:52;5.45;;;1.80;;
23596;SDS011;40226;50.874;4.394;2023-07-29T08:43:28;3.50;;;1.75;;
23596;SDS011;40226;50.874;4.394;2023-07-29T08:45:58;5.10;;;2.15;;
23596;SDS011;40226;50.874;4.394;2023-07-29T08:48:58;3.97;;;1.80;;
23596;SDS011;40226;50.874;4.394;2023-07-29T08:51:16;3.03;;;1.95;;
23596;SDS011;40226;50.874;4.394;2023-07-29T08:53:44;3.90;;;1.73;;
23596;SDS011;40226;50.874;4.394;2023-07-29T08:56:11;2.33;;;1.60;;
23596;SDS011;40226;50.874;4.394;2023-07-29T08:58:37;4.40;;;1.90;;
23596;SDS011;40226;50.874;4.394;2023-07-29T09:01:03;2.20;;;1.75;;
23596;SDS011;40226;50.874;4.394;2023-07-29T09:03:30;2.20;;;1.50;;
23596;SDS011;40226;50.874;4.394;2023-07-29T09:05:56;3.55;;;1.55;;
23596;SDS011;40226;50.874;4.394;2023-07-29T09:08:24;2.58;;;1.73;;
23596;SDS011;40226;50.874;4.394;2023-07-29T09:10:52;4.47;;;2.00;;
23596;SDS011;40226;50.874;4.394;2023-07-29T09:13:18;2.97;;;2.30;;
23596;SDS011;40226;50.874;4.394;2023-07-29T09:15:45;3.00;;;2.10;;
23596;SDS011;40226;50.874;4.394;2023-07-29T09:18:11;3.42;;;2.00;;
23596;SDS011;40226;50.874;4.394;2023-07-29T09:20:39;5.50;;;2.03;;
23596;SDS011;40226;50.874;4.394;2023-07-29T09:23:06;4.07;;;1.90;;
23596;SDS011;40226;50.874;4.394;2023-07-29T09:25:35;4.07;;;2.30;;
23596;SDS011;40226;50.874;4.394;2023-07-29T09:28:01;4.35;;;2.08;;
23596;SDS011;40226;50.874;4.394;2023-07-29T09:30:35;3.25;;;2.22;;
23596;SDS011;40226;50.874;4.394;2023-07-29T09:33:02;3.63;;;2.08;;
23596;SDS011;40226;50.874;4.394;2023-07-29T09:35:28;5.85;;;2.50;;
23596;SDS011;40226;50.874;4.394;2023-07-29T09:37:57;3.17;;;2.33;;
23596;SDS011;40226;50.874;4.394;2023-07-29T09:40:22;4.75;;;2.30;;
23596;SDS011;40226;50.874;4.394;2023-07-29T09:42:52;3.92;;;2.00;;
23596;SDS011;40226;50.874;4.394;2023-07-29T09:45:25;2.88;;;2.20;;
23596;SDS011;40226;50.874;4.394;2023-07-29T09:47:52;3.50;;;2.03;;
23596;SDS011;40226;50.874;4.394;2023-07-29T09:50:22;4.47;;;2.28;;
23596;SDS011;40226;50.874;4.394;2023-07-29T09:52:48;4.30;;;2.55;;
23596;SDS011;40226;50.874;4.394;2023-07-29T09:55:17;3.05;;;2.47;;
23596;SDS011;40226;50.874;4.394;2023-07-29T09:57:53;5.32;;;2.22;;
23596;SDS011;40226;50.874;4.394;2023-07-29T10:00:23;4.65;;;2.47;;
23596;SDS011;40226;50.874;4.394;2023-07-29T10:02:49;3.53;;;2.42;;
23596;SDS011;40226;50.874;4.394;2023-07-29T10:05:15;4.20;;;2.20;;
23596;SDS011;40226;50.874;4.394;2023-07-29T10:07:41;3.78;;;2.30;;
23596;SDS011;40226;50.874;4.394;2023-07-29T10:10:07;5.35;;;2.50;;
23596;SDS011;40226;50.874;4.394;2023-07-29T10:12:34;3.95;;;2.30;;
23596;SDS011;40226;50.874;4.394;2023-07-29T10:15:04;4.13;;;2.28;;
23596;SDS011;40226;50.874;4.394;2023-07-29T10:17:31;3.17;;;2.30;;
23596;SDS011;40226;50.874;4.394;2023-07-29T10:19:59;2.42;;;2.13;;
23596;SDS011;40226;50.874;4.394;2023-07-29T10:22:29;2.90;;;2.20;;
23596;SDS011;40226;50.874;4.394;2023-07-29T10:25:02;4.78;;;2.45;;
23596;SDS011;40226;50.874;4.394;2023-07-29T10:28:01;4.15;;;2.13;;
23596;SDS011;40226;50.874;4.394;2023-07-29T10:30:30;3.00;;;2.10;;
23596;SDS011;40226;50.874;4.394;2023-07-29T10:32:58;5.65;;;2.30;;
23596;SDS011;40226;50.874;4.394;2023-07-29T10:35:26;3.85;;;2.30;;
23596;SDS011;40226;50.874;4.394;2023-07-29T10:37:52;4.82;;;2.55;;
23596;SDS011;40226;50.874;4.394;2023-07-29T10:40:18;5.28;;;2.55;;
23596;SDS011;40226;50.874;4.394;2023-07-29T10:43:03;6.75;;;3.67;;
23596;SDS011;40226;50.874;4.394;2023-07-29T10:45:38;8.70;;;3.88;;
23596;SDS011;40226;50.874;4.394;2023-07-29T10:54:02;6.97;;;4.80;;
23596;SDS011;40226;50.874;4.394;2023-07-29T10:58:55;8.05;;;5.00;;
23596;SDS011;40226;50.874;4.394;2023-07-29T11:01:26;8.77;;;4.95;;
23596;SDS011;40226;50.874;4.394;2023-07-29T11:12:35;2.17;;;1.75;;
23596;SDS011;40226;50.874;4.394;2023-07-29T11:17:46;1.85;;;0.50;;
23596;SDS011;40226;50.874;4.394;2023-07-29T11:20:19;0.08;;;0.08;;
23596;SDS011;40226;50.874;4.394;2023-07-29T11:22:47;0.22;;;0.22;;
23596;SDS011;40226;50.874;4.394;2023-07-29T11:25:14;0.38;;;0.38;;
23596;SDS011;40226;50.874;4.394;2023-07-29T11:27:41;0.13;;;0.13;;
23596;SDS011;40226;50.874;4.394;2023-07-29T11:30:09;0.65;;;0.55;;
23596;SDS011;40226;50.874;4.394;2023-07-29T11:32:38;0.68;;;0.68;;
23596;SDS011;40226;50.874;4.394;2023-07-29T11:35:09;0.68;;;0.52;;
23596;SDS011;40226;50.874;4.394;2023-07-29T11:37:36;1.02;;;0.93;;
23596;SDS011;40226;50.874;4.394;2023-07-29T11:40:03;0.38;;;0.38;;
23596;SDS011;40226;50.874;4.394;2023-07-29T11:42:33;0.20;;;0.20;;
23596;SDS011;40226;50.874;4.394;2023-07-29T11:44:59;0.20;;;0.20;;
23596;SDS011;40226;50.874;4.394;2023-07-29T11:47:26;0.43;;;0.28;;
23596;SDS011;40226;50.874;4.394;2023-07-29T11:49:52;0.30;;;0.28;;
23596;SDS011;40226;50.874;4.394;2023-07-29T11:52:17;1.00;;;0.70;;
23596;SDS011;40226;50.874;4.394;2023-07-29T11:54:45;0.00;;;0.00;;
23596;SDS011;40226;50.874;4.394;2023-07-29T11:57:14;0.20;;;0.20;;
23596;SDS011;40226;50.874;4.394;2023-07-29T11:59:40;0.10;;;0.10;;
23596;SDS011;40226;50.874;4.394;2023-07-29T12:02:13;0.40;;;0.40;;
23596;SDS011;40226;50.874;4.394;2023-07-29T12:04:41;5.25;;;0.50;;
23596;SDS011;40226;50.874;4.394;2023-07-29T12:07:07;0.10;;;0.10;;
23596;SDS011;40226;50.874;4.394;2023-07-29T12:09:33;1.33;;;0.88;;
23596;SDS011;40226;50.874;4.394;2023-07-29T12:12:01;0.05;;;0.05;;
23596;SDS011;40226;50.874;4.394;2023-07-29T12:14:30;0.10;;;0.10;;
23596;SDS011;40226;50.874;4.394;2023-07-29T12:17:03;1.45;;;0.65;;
23596;SDS011;40226;50.874;4.394;2023-07-29T12:19:33;0.13;;;0.13;;
23596;SDS011;40226;50.874;4.394;2023-07-29T12:22:02;0.20;;;0.20;;
23596;SDS011;40226;50.874;4.394;2023-07-29T12:24:30;0.10;;;0.10;;
23596;SDS011;40226;50.874;4.394;2023-07-29T12:26:56;0.32;;;0.32;;
23596;SDS011;40226;50.874;4.394;2023-07-29T12:29:22;0.20;;;0.20;;
23596;SDS011;40226;50.874;4.394;2023-07-29T12:31:48;0.52;;;0.40;;
23596;SDS011;40226;50.874;4.394;2023-07-29T12:34:18;1.33;;;1.17;;
23596;SDS011;40226;50.874;4.394;2023-07-29T12:36:48;0.30;;;0.30;;
23596;SDS011;40226;50.874;4.394;2023-07-29T12:39:18;0.25;;;0.25;;
23596;SDS011;40226;50.874;4.394;2023-07-29T12:41:46;1.60;;;0.77;;
23596;SDS011;40226;50.874;4.394;2023-07-29T12:44:13;0.10;;;0.10;;
23596;SDS011;40226;50.874;4.394;2023-07-29T12:46:38;0.17;;;0.17;;
23596;SDS011;40226;50.874;4.394;2023-07-29T12:49:04;0.28;;;0.28;;
23596;SDS011;40226;50.874;4.394;2023-07-29T12:51:29;5.38;;;4.30;;
23596;SDS011;40226;50.874;4.394;2023-07-29T12:53:55;3.70;;;3.20;;
23596;SDS011;40226;50.874;4.394;2023-07-29T12:56:21;4.45;;;2.97;;
23596;SDS011;40226;50.874;4.394;2023-07-29T12:58:46;4.05;;;3.05;;
23596;SDS011;40226;50.874;4.394;2023-07-29T13:01:12;3.92;;;3.38;;
23596;SDS011;40226;50.874;4.394;2023-07-29T13:03:42;3.72;;;2.90;;
23596;SDS011;40226;50.874;4.394;2023-07-29T13:06:07;2.70;;;2.50;;
23596;SDS011;40226;50.874;4.394;2023-07-29T13:08:33;3.35;;;2.97;;
23596;SDS011;40226;50.874;4.394;2023-07-29T13:10:59;2.60;;;2.35;;
23596;SDS011;40226;50.874;4.394;2023-07-29T13:13:24;2.97;;;2.28;;
23596;SDS011;40226;50.874;4.394;2023-07-29T13:15:50;2.55;;;2.35;;
23596;SDS011;40226;50.874;4.394;2023-07-29T13:18:16;2.55;;;1.83;;
23596;SDS011;40226;50.874;4.394;2023-07-29T13:20:41;2.40;;;2.20;;
23596;SDS011;40226;50.874;4.394;2023-07-29T13:23:07;2.63;;;2.22;;
23596;SDS011;40226;50.874;4.394;2023-07-29T13:25:33;4.55;;;2.28;;
23596;SDS011;40226;50.874;4.394;2023-07-29T13:27:58;2.45;;;2.25;;
23596;SDS011;40226;50.874;4.394;2023-07-29T13:30:24;3.47;;;2.05;;
23596;SDS011;40226;50.874;4.394;2023-07-29T13:32:49;2.80;;;2.30;;
23596;SDS011;40226;50.874;4.394;2023-07-29T13:35:15;3.70;;;2.65;;
23596;SDS011;40226;50.874;4.394;2023-07-29T13:37:40;2.40;;;2.20;;
23596;SDS011;40226;50.874;4.394;2023-07-29T13:40:06;2.75;;;2.20;;
23596;SDS011;40226;50.874;4.394;2023-07-29T13:42:32;2.33;;;2.00;;
23596;SDS011;40226;50.874;4.394;2023-07-29T13:44:57;3.05;;;1.98;;
23596;SDS011;40226;50.874;4.394;2023-07-29T13:47:23;2.53;;;2.33;;
23596;SDS011;40226;50.874;4.394;2023-07-29T13:49:48;2.72;;;2.40;;
23596;SDS011;40226;50.874;4.394;2023-07-29T13:52:14;2.40;;;2.10;;
23596;SDS011;40226;50.874;4.394;2023-07-29T13:54:40;2.53;;;2.33;;
23596;SDS011;40226;50.874;4.394;2023-07-29T13:57:05;2.42;;;2.08;;
23596;SDS011;40226;50.874;4.394;2023-07-29T13:59:31;2.45;;;2.20;;
23596;SDS011;40226;50.874;4.394;2023-07-29T14:01:57;3.33;;;2.30;;
23596;SDS011;40226;50.874;4.394;2023-07-29T14:04:23;2.45;;;2.25;;
23596;SDS011;40226;50.874;4.394;2023-07-29T14:06:48;2.60;;;2.30;;
23596;SDS011;40226;50.874;4.394;2023-07-29T14:09:14;6.30;;;2.03;;
23596;SDS011;40226;50.874;4.394;2023-07-29T14:11:39;2.13;;;1.90;;
23596;SDS011;40226;50.874;4.394;2023-07-29T14:14:05;3.20;;;1.70;;
23596;SDS011;40226;50.874;4.394;2023-07-29T14:16:31;2.20;;;2.00;;
23596;SDS011;40226;50.874;4.394;2023-07-29T14:18:57;2.80;;;1.75;;
23596;SDS011;40226;50.874;4.394;2023-07-29T14:21:22;3.25;;;1.75;;
23596;SDS011;40226;50.874;4.394;2023-07-29T14:23:48;1.98;;;1.77;;
23596;SDS011;40226;50.874;4.394;2023-07-29T14:26:14;4.07;;;2.13;;
23596;SDS011;40226;50.874;4.394;2023-07-29T14:28:39;2.25;;;1.88;;
23596;SDS011;40226;50.874;4.394;2023-07-29T14:31:05;3.40;;;1.60;;
23596;SDS011;40226;50.874;4.394;2023-07-29T14:33:30;2.00;;;1.75;;
23596;SDS011;40226;50.874;4.394;2023-07-29T14:35:56;2.17;;;1.60;;
23596;SDS011;40226;50.874;4.394;2023-07-29T14:38:22;2.15;;;1.95;;
23596;SDS011;40226;50.874;4.394;2023-07-29T14:40:47;3.78;;;2.10;;
23596;SDS011;40226;50.874;4.394;2023-07-29T14:43:15;1.98;;;1.77;;
23596;SDS011;40226;50.874;4.394;2023-07-29T14:45:41;1.88;;;1.60;;
23596;SDS011;40226;50.874;4.394;2023-07-29T14:48:07;2.88;;;1.50;;
23596;SDS011;40226;50.874;4.394;2023-07-29T14:50:32;2.10;;;1.60;;
23596;SDS011;40226;50.874;4.394;2023-07-29T14:52:58;2.10;;;1.90;;
23596;SDS011;40226;50.874;4.394;2023-07-29T14:55:23;1.88;;;1.55;;
23596;SDS011;40226;50.874;4.394;2023-07-29T14:57:49;2.30;;;1.88;;
23596;SDS011;40226;50.874;4.394;2023-07-29T15:00:14;2.60;;;2.05;;
23596;SDS011;40226;50.874;4.394;2023-07-29T15:02:40;2.10;;;1.88;;
23596;SDS011;40226;50.874;4.394;2023-07-29T15:05:06;2.58;;;1.90;;
23596;SDS011;40226;50.874;4.394;2023-07-29T15:07:32;2.30;;;1.80;;
23596;SDS011;40226;50.874;4.394;2023-07-29T15:09:58;2.00;;;1.77;;
23596;SDS011;40226;50.874;4.394;2023-07-29T15:12:23;2.80;;;1.73;;